createdAt,value
2022-12-08T00:00:11.324Z,100.00
2022-12-08T00:02:37.761Z,100.00
2022-12-08T00:05:23.129Z,100.00
2022-12-08T00:08:08.196Z,100.00
2022-12-08T00:10:51.056Z,100.00
2022-12-08T00:13:17.514Z,100.00
2022-12-08T00:15:43.966Z,100.00
2022-12-08T00:18:10.294Z,100.00
2022-12-08T00:20:36.646Z,100.00
2022-12-08T00:23:04.273Z,100.00
2022-12-08T00:25:34.880Z,100.00
2022-12-08T00:28:01.448Z,100.00
2022-12-08T00:30:27.921Z,100.00
2022-12-08T00:32:54.245Z,100.00
2022-12-08T00:35:20.806Z,100.00
2022-12-08T00:37:47.142Z,100.00
2022-12-08T00:40:14.688Z,100.00
2022-12-08T00:42:41.019Z,100.00
2022-12-08T00:45:07.534Z,100.00
2022-12-08T00:47:33.903Z,100.00
2022-12-08T00:50:00.373Z,100.00
2022-12-08T00:52:27.888Z,100.00
2022-12-08T00:54:54.235Z,100.00
2022-12-08T00:57:26.504Z,100.00
2022-12-08T00:59:52.832Z,100.00
2022-12-08T01:02:19.215Z,100.00
2022-12-08T01:04:45.628Z,100.00
2022-12-08T01:07:11.935Z,100.00
2022-12-08T01:09:38.285Z,100.00
2022-12-08T01:12:05.259Z,100.00
2022-12-08T01:14:31.584Z,100.00
2022-12-08T01:16:58.028Z,100.00
2022-12-08T01:19:24.416Z,100.00
2022-12-08T01:21:50.726Z,100.00
2022-12-08T01:24:19.154Z,100.00
2022-12-08T01:26:45.894Z,100.00
2022-12-08T01:29:12.517Z,100.00
2022-12-08T01:31:39.315Z,100.00
2022-12-08T01:34:06.193Z,100.00
2022-12-08T01:36:33.713Z,100.00
2022-12-08T01:39:01.213Z,100.00
2022-12-08T01:41:29.598Z,100.00
2022-12-08T01:44:24.767Z,100.00
2022-12-08T01:46:52.507Z,100.00
2022-12-08T01:49:22.501Z,100.00
2022-12-08T01:52:04.208Z,100.00
2022-12-08T01:54:36.775Z,100.00
2022-12-08T01:57:08.295Z,100.00
2022-12-08T01:59:36.702Z,100.00
2022-12-08T02:02:03.304Z,100.00
2022-12-08T02:04:29.799Z,100.00
2022-12-08T02:06:56.313Z,100.00
2022-12-08T02:09:22.676Z,100.00
2022-12-08T02:11:50.355Z,100.00
2022-12-08T02:14:17.850Z,100.00
2022-12-08T02:17:02.796Z,100.00
2022-12-08T02:19:47.835Z,100.00
2022-12-08T02:22:25.046Z,100.00
2022-12-08T02:24:54.866Z,100.00
2022-12-08T02:27:33.895Z,100.00
2022-12-08T02:30:07.096Z,100.00
2022-12-08T02:32:41.313Z,100.00
2022-12-08T02:35:07.640Z,100.00
2022-12-08T02:37:46.188Z,100.00
2022-12-08T02:40:16.592Z,100.00
2022-12-08T02:43:03.216Z,100.00
2022-12-08T02:45:41.360Z,100.00
2022-12-08T02:48:09.076Z,100.00
2022-12-08T02:50:35.393Z,100.00
2022-12-08T02:53:02.898Z,100.00
2022-12-08T02:55:33.092Z,100.00
2022-12-08T02:58:23.540Z,100.00
2022-12-08T03:00:51.913Z,100.00
2022-12-08T03:03:23.819Z,100.00
2022-12-08T03:06:09.349Z,100.00
2022-12-08T03:08:47.932Z,100.00
2022-12-08T03:11:21.703Z,100.00
2022-12-08T03:13:57.012Z,100.00
2022-12-08T03:16:24.974Z,100.00
2022-12-08T03:18:54.920Z,100.00
2022-12-08T03:21:21.812Z,100.00
2022-12-08T03:23:50.923Z,100.00
2022-12-08T03:26:22.787Z,100.00
2022-12-08T03:28:50.416Z,100.00
2022-12-08T03:31:18.436Z,100.00
2022-12-08T03:33:47.053Z,100.00
2022-12-08T03:36:14.319Z,100.00
2022-12-08T03:38:45.816Z,100.00
2022-12-08T03:41:21.033Z,100.00
2022-12-08T03:43:47.658Z,100.00
2022-12-08T03:46:14.910Z,100.00
2022-12-08T03:48:41.507Z,100.00
2022-12-08T03:51:07.964Z,100.00
2022-12-08T03:53:34.637Z,100.00
2022-12-08T03:56:01.260Z,100.00
2022-12-08T03:58:29.071Z,100.00
2022-12-08T04:00:57.136Z,100.00
2022-12-08T04:03:23.527Z,100.00
2022-12-08T04:05:50.002Z,100.00
2022-12-08T04:08:16.491Z,100.00
2022-12-08T04:10:42.887Z,100.00
2022-12-08T04:13:09.264Z,100.00
2022-12-08T04:15:35.645Z,100.00
2022-12-08T04:18:04.032Z,100.00
2022-12-08T04:20:30.459Z,100.00
2022-12-08T04:22:56.857Z,100.00
2022-12-08T04:25:23.435Z,100.00
2022-12-08T04:27:49.865Z,100.00
2022-12-08T04:30:16.278Z,100.00
2022-12-08T04:32:48.502Z,100.00
2022-12-08T04:35:14.823Z,100.00
2022-12-08T04:37:41.308Z,100.00
2022-12-08T04:40:07.904Z,100.00
2022-12-08T04:42:34.215Z,100.00
2022-12-08T04:45:00.612Z,100.00
2022-12-08T04:47:40.029Z,100.00
2022-12-08T04:50:07.100Z,100.00
2022-12-08T04:52:33.837Z,100.00
2022-12-08T04:55:02.701Z,100.00
2022-12-08T04:57:29.022Z,100.00
2022-12-08T04:59:55.386Z,100.00
2022-12-08T05:02:22.881Z,100.00
2022-12-08T05:04:49.235Z,100.00
2022-12-08T05:07:15.899Z,100.00
2022-12-08T05:09:44.870Z,100.00
2022-12-08T05:12:11.183Z,100.00
2022-12-08T05:14:37.529Z,100.00
2022-12-08T05:17:09.335Z,100.00
2022-12-08T05:19:36.213Z,100.00
2022-12-08T05:22:02.687Z,100.00
2022-12-08T05:24:28.994Z,100.00
2022-12-08T05:26:57.447Z,100.00
2022-12-08T05:29:23.851Z,100.00
2022-12-08T05:31:52.983Z,100.00
2022-12-08T05:34:22.614Z,100.00
2022-12-08T05:36:48.956Z,100.00
2022-12-08T05:39:16.337Z,100.00
2022-12-08T05:41:42.763Z,100.00
2022-12-08T05:44:10.239Z,100.00
2022-12-08T05:46:36.628Z,100.00
2022-12-08T05:49:03.679Z,100.00
2022-12-08T05:51:30.247Z,100.00
2022-12-08T05:53:56.775Z,100.00
2022-12-08T05:56:23.749Z,100.00
2022-12-08T05:58:50.450Z,100.00
2022-12-08T06:01:22.870Z,100.00
2022-12-08T06:03:49.624Z,100.00
2022-12-08T06:06:16.199Z,100.00
2022-12-08T06:08:42.527Z,100.00
2022-12-08T06:11:10.239Z,100.00
2022-12-08T06:13:36.564Z,100.00
2022-12-08T06:16:03.781Z,100.00
2022-12-08T06:18:32.832Z,100.00
2022-12-08T06:21:03.464Z,100.00
2022-12-08T06:23:29.859Z,100.00
2022-12-08T06:26:00.607Z,100.00
2022-12-08T06:28:27.045Z,100.00
2022-12-08T06:30:53.461Z,100.00
2022-12-08T06:33:19.863Z,100.00
2022-12-08T06:35:46.310Z,100.00
2022-12-08T06:38:12.714Z,100.00
2022-12-08T06:40:39.051Z,100.00
2022-12-08T06:43:05.700Z,100.00
2022-12-08T06:45:32.127Z,100.00
2022-12-08T06:48:04.741Z,100.00
2022-12-08T06:50:32.557Z,100.00
2022-12-08T06:53:05.076Z,100.00
2022-12-08T06:55:57.983Z,100.00
2022-12-08T06:58:20.207Z,100.00
2022-12-08T07:00:46.642Z,100.00
2022-12-08T07:03:13.398Z,100.00
2022-12-08T07:05:39.753Z,100.00
2022-12-08T07:08:07.822Z,100.00
2022-12-08T07:10:35.566Z,100.00
2022-12-08T07:13:01.920Z,100.00
2022-12-08T07:15:29.342Z,100.00
2022-12-08T07:17:59.771Z,100.00
2022-12-08T07:20:26.409Z,100.00
2022-12-08T07:22:53.004Z,100.00
2022-12-08T07:25:21.858Z,100.00
2022-12-08T07:27:50.030Z,100.00
2022-12-08T07:30:16.423Z,100.00
2022-12-08T07:32:42.830Z,100.00
2022-12-08T07:35:09.828Z,100.00
2022-12-08T07:37:37.522Z,100.00
2022-12-08T07:40:07.599Z,100.00
2022-12-08T07:42:34.192Z,100.00
2022-12-08T07:45:03.891Z,100.00
2022-12-08T07:47:30.224Z,100.00
2022-12-08T07:49:56.597Z,100.00
2022-12-08T07:52:23.372Z,100.00
2022-12-08T07:54:49.698Z,100.00
2022-12-08T07:57:16.992Z,100.00
2022-12-08T07:59:46.920Z,100.00
2022-12-08T08:02:26.612Z,100.00
2022-12-08T08:04:53.453Z,100.00
2022-12-08T08:07:19.924Z,100.00
2022-12-08T08:09:48.291Z,100.00
2022-12-08T08:12:31.742Z,100.00
2022-12-08T08:14:59.876Z,100.00
2022-12-08T08:17:32.159Z,100.00
2022-12-08T08:19:58.770Z,100.00
2022-12-08T08:22:25.873Z,100.00
2022-12-08T08:24:52.862Z,100.00
2022-12-08T08:27:19.396Z,100.00
2022-12-08T08:29:46.826Z,100.00
2022-12-08T08:32:13.220Z,100.00
2022-12-08T08:34:39.543Z,100.00
2022-12-08T08:37:06.987Z,100.00
2022-12-08T08:39:33.446Z,100.00
2022-12-08T08:41:59.778Z,100.00
2022-12-08T08:44:26.223Z,100.00
2022-12-08T08:46:53.833Z,100.00
2022-12-08T08:49:29.414Z,100.00
2022-12-08T08:51:55.733Z,100.00
2022-12-08T08:54:22.244Z,100.00
2022-12-08T08:56:49.822Z,100.00
2022-12-08T08:59:16.222Z,100.00
2022-12-08T09:01:42.684Z,100.00
2022-12-08T09:04:10.431Z,100.00
2022-12-08T09:06:36.976Z,100.00
2022-12-08T09:09:03.783Z,100.00
2022-12-08T09:11:30.195Z,100.00
2022-12-08T09:13:56.674Z,100.00
2022-12-08T09:16:23.617Z,100.00
2022-12-08T09:18:50.182Z,100.00
2022-12-08T09:21:20.333Z,100.00
2022-12-08T09:23:46.654Z,100.00
2022-12-08T09:26:13.002Z,100.00
2022-12-08T09:28:40.504Z,100.00
2022-12-08T09:31:06.880Z,100.00
2022-12-08T09:33:36.353Z,100.00
2022-12-08T09:36:03.817Z,100.00
2022-12-08T09:38:40.782Z,100.00
2022-12-08T09:41:35.956Z,100.00
2022-12-08T09:44:21.339Z,100.00
2022-12-08T09:46:48.785Z,100.00
2022-12-08T09:49:16.302Z,100.00
2022-12-08T09:51:44.026Z,100.00
2022-12-08T09:54:18.426Z,100.00
2022-12-08T09:56:45.048Z,100.00
2022-12-08T09:59:23.832Z,100.00
2022-12-08T10:01:50.855Z,100.00
2022-12-08T10:04:25.589Z,100.00
2022-12-08T10:07:10.452Z,100.00
2022-12-08T10:09:42.661Z,100.00
2022-12-08T10:12:15.428Z,100.00
2022-12-08T10:14:43.777Z,100.00
2022-12-08T10:17:17.871Z,100.00
2022-12-08T10:19:45.513Z,100.00
2022-12-08T10:22:17.575Z,100.00
2022-12-08T10:24:50.708Z,100.00
2022-12-08T10:27:17.028Z,100.00
2022-12-08T10:29:43.357Z,100.00
2022-12-08T10:32:13.854Z,100.00
2022-12-08T10:34:58.704Z,100.00
2022-12-08T10:37:25.048Z,100.00
2022-12-08T10:39:58.817Z,100.00
2022-12-08T10:42:32.695Z,100.00
2022-12-08T10:45:02.707Z,100.00
2022-12-08T10:47:30.234Z,100.00
2022-12-08T10:50:08.467Z,100.00
2022-12-08T10:52:39.059Z,100.00
2022-12-08T10:55:13.507Z,100.00
2022-12-08T10:57:41.101Z,100.00
2022-12-08T11:00:13.639Z,100.00
2022-12-08T11:02:57.714Z,100.00
2022-12-08T11:05:26.954Z,100.00
2022-12-08T11:07:55.105Z,100.00
2022-12-08T11:10:28.557Z,100.00
2022-12-08T11:12:55.300Z,100.00
2022-12-08T11:15:21.768Z,100.00
2022-12-08T11:17:59.499Z,100.00
2022-12-08T11:20:25.849Z,100.00
2022-12-08T11:22:54.861Z,100.00
2022-12-08T11:25:23.280Z,100.00
2022-12-08T11:27:52.721Z,100.00
2022-12-08T11:30:20.982Z,100.00
2022-12-08T11:32:51.062Z,100.00
2022-12-08T11:35:32.559Z,100.00
2022-12-08T11:38:20.664Z,100.00
2022-12-08T11:40:51.790Z,100.00
2022-12-08T11:43:33.232Z,100.00
2022-12-08T11:46:01.104Z,100.00
2022-12-08T11:48:30.559Z,100.00
2022-12-08T11:51:04.464Z,100.00
2022-12-08T11:53:48.712Z,100.00
2022-12-08T11:56:35.321Z,100.00
2022-12-08T11:59:17.279Z,100.00
2022-12-08T12:01:44.685Z,100.00
2022-12-08T12:04:22.928Z,100.00
2022-12-08T12:06:55.723Z,100.00
2022-12-08T12:09:41.496Z,100.00
2022-12-08T12:12:17.118Z,100.00
2022-12-08T12:14:44.132Z,93.32
2022-12-08T12:17:22.733Z,93.24
2022-12-08T12:19:49.847Z,91.72
2022-12-08T12:22:17.784Z,94.72
2022-12-08T12:24:45.653Z,96.09
2022-12-08T12:27:14.968Z,97.25
2022-12-08T12:29:48.743Z,94.85
2022-12-08T12:32:18.363Z,92.90
2022-12-08T12:34:44.866Z,97.69
2022-12-08T12:37:13.016Z,90.25
2022-12-08T12:39:58.073Z,91.33
2022-12-08T12:42:42.028Z,94.04
2022-12-08T12:45:16.172Z,93.34
2022-12-08T12:47:46.905Z,93.47
2022-12-08T12:50:34.472Z,92.11
2022-12-08T12:53:03.375Z,90.65
2022-12-08T12:55:49.680Z,91.99
2022-12-08T12:58:33.605Z,89.30
2022-12-08T13:01:14.427Z,93.80
2022-12-08T13:03:52.031Z,93.07
2022-12-08T13:06:22.963Z,92.71
2022-12-08T13:08:53.081Z,90.23
2022-12-08T13:11:20.074Z,90.05
2022-12-08T13:14:01.430Z,92.60
2022-12-08T13:16:31.533Z,93.70
2022-12-08T13:18:59.191Z,90.73
2022-12-08T13:21:31.582Z,89.63
2022-12-08T13:24:19.746Z,90.49
2022-12-08T13:26:47.237Z,89.29
2022-12-08T13:29:13.578Z,84.42
2022-12-08T13:31:48.307Z,86.39
2022-12-08T13:34:20.746Z,86.36
2022-12-08T13:37:07.993Z,86.48
2022-12-08T13:39:40.197Z,85.13
2022-12-08T13:42:12.777Z,89.04
2022-12-08T13:47:59.554Z,90.96
2022-12-08T13:59:18.759Z,89.04
2022-12-08T14:01:48.763Z,86.46
2022-12-08T14:04:53.919Z,89.07
2022-12-08T14:07:11.839Z,87.05
2022-12-08T14:09:42.104Z,87.26
2022-12-08T14:12:15.858Z,88.99
2022-12-08T14:17:39.213Z,86.38
2022-12-08T14:20:19.304Z,89.79
2022-12-08T14:22:46.569Z,87.55
2022-12-08T14:25:15.191Z,85.20
2022-12-08T14:27:41.731Z,86.10
2022-12-08T14:30:14.695Z,86.57
2022-12-08T14:32:52.638Z,85.22
2022-12-08T14:35:26.350Z,85.15
2022-12-08T14:37:58.854Z,85.87
2022-12-08T14:40:29.674Z,85.33
2022-12-08T14:43:08.714Z,86.08
2022-12-08T14:45:45.902Z,84.14
2022-12-08T14:48:38.402Z,84.95
2022-12-08T14:51:07.822Z,82.55
2022-12-08T14:53:39.754Z,84.01
2022-12-08T14:56:15.127Z,87.94
2022-12-08T14:58:41.869Z,84.55
2022-12-08T15:01:10.431Z,84.30
2022-12-08T15:03:36.894Z,85.11
2022-12-08T15:06:04.928Z,84.91
2022-12-08T15:08:31.947Z,85.99
2022-12-08T15:11:14.076Z,86.59
2022-12-08T15:13:46.437Z,85.16
2022-12-08T15:16:37.584Z,89.20
2022-12-08T15:19:16.322Z,89.02
2022-12-08T15:21:43.743Z,89.99
2022-12-08T15:24:11.505Z,90.50
2022-12-08T15:26:44.333Z,93.54
2022-12-08T15:29:13.756Z,95.23
2022-12-08T15:31:40.175Z,94.33
2022-12-08T15:34:06.559Z,94.25
2022-12-08T15:36:32.971Z,93.94
2022-12-08T15:38:59.473Z,95.11
2022-12-08T15:41:25.801Z,96.03
2022-12-08T15:43:52.286Z,98.05
2022-12-08T15:46:18.794Z,98.97
2022-12-08T15:48:47.218Z,99.40
2022-12-08T15:51:13.538Z,99.13
2022-12-08T15:53:40.031Z,100.00
2022-12-08T15:58:55.736Z,100.00
2022-12-08T16:01:23.406Z,100.00
2022-12-08T16:09:24.363Z,100.00
2022-12-08T16:12:10.524Z,100.00
2022-12-08T16:17:37.818Z,100.00
2022-12-08T16:20:05.827Z,100.00
2022-12-08T16:25:21.407Z,100.00
2022-12-08T16:28:29.479Z,100.00
2022-12-08T16:30:37.051Z,100.00
2022-12-08T16:33:03.457Z,100.00
2022-12-08T16:35:30.428Z,100.00
2022-12-08T16:38:04.177Z,100.00
2022-12-08T16:40:30.829Z,100.00
2022-12-08T16:42:57.192Z,100.00
2022-12-08T16:45:26.243Z,100.00
2022-12-08T16:47:57.150Z,100.00
2022-12-08T16:50:29.554Z,100.00
2022-12-08T16:53:00.229Z,100.00
2022-12-08T16:55:27.578Z,100.00
2022-12-08T16:57:54.223Z,100.00
2022-12-08T17:00:21.607Z,100.00
2022-12-08T17:02:48.612Z,100.00
2022-12-08T17:05:16.154Z,100.00
2022-12-08T17:07:43.865Z,100.00
2022-12-08T17:10:12.829Z,100.00
2022-12-08T17:12:39.154Z,100.00
2022-12-08T17:15:07.008Z,100.00
2022-12-08T17:17:35.387Z,100.00
2022-12-08T17:20:05.009Z,100.00
2022-12-08T17:22:31.939Z,100.00
2022-12-08T17:24:58.619Z,100.00
2022-12-08T17:27:25.200Z,100.00
2022-12-08T17:29:51.591Z,100.00
2022-12-08T17:32:18.662Z,100.00
2022-12-08T17:34:45.035Z,100.00
2022-12-08T17:37:11.365Z,100.00
2022-12-08T17:39:38.554Z,100.00
2022-12-08T17:42:05.837Z,100.00
2022-12-08T17:44:33.535Z,100.00
2022-12-08T17:47:00.316Z,100.00
2022-12-08T17:49:29.525Z,100.00
2022-12-08T17:51:58.357Z,100.00
2022-12-08T17:54:25.396Z,100.00
2022-12-08T17:56:52.920Z,100.00
2022-12-08T17:59:20.245Z,100.00
2022-12-08T18:01:46.646Z,100.00
2022-12-08T18:04:13.336Z,100.00
2022-12-08T18:06:40.176Z,100.00
2022-12-08T18:09:08.056Z,100.00
2022-12-08T18:11:35.034Z,100.00
2022-12-08T18:14:09.350Z,100.00
2022-12-08T18:16:40.067Z,100.00
2022-12-08T18:19:06.815Z,100.00
2022-12-08T18:21:35.788Z,100.00
2022-12-08T18:24:02.414Z,100.00
2022-12-08T18:26:30.626Z,100.00
2022-12-08T18:28:57.303Z,100.00
2022-12-08T18:31:24.201Z,100.00
2022-12-08T18:33:51.255Z,100.00
2022-12-08T18:36:21.522Z,100.00
2022-12-08T18:38:48.094Z,100.00
2022-12-08T18:41:15.736Z,100.00
2022-12-08T18:43:43.206Z,100.00
2022-12-08T18:46:10.972Z,100.00
2022-12-08T18:48:38.606Z,100.00
2022-12-08T18:51:09.222Z,100.00
2022-12-08T18:53:39.791Z,100.00
2022-12-08T18:56:07.037Z,100.00
2022-12-08T18:58:33.874Z,100.00
2022-12-08T19:01:00.281Z,100.00
2022-12-08T19:03:27.728Z,100.00
2022-12-08T19:06:05.231Z,100.00
2022-12-08T19:08:31.928Z,100.00
2022-12-08T19:10:58.696Z,100.00
2022-12-08T19:13:29.334Z,100.00
2022-12-08T19:15:55.789Z,100.00
2022-12-08T19:18:22.317Z,100.00
2022-12-08T19:20:49.793Z,100.00
2022-12-08T19:23:16.186Z,100.00
2022-12-08T19:25:42.525Z,100.00
2022-12-08T19:28:09.049Z,100.00
2022-12-08T19:30:40.416Z,100.00
2022-12-08T19:33:06.914Z,100.00
2022-12-08T19:35:33.237Z,100.00
2022-12-08T19:37:59.572Z,100.00
2022-12-08T19:40:44.464Z,100.00
2022-12-08T19:43:32.936Z,100.00
2022-12-08T19:45:59.447Z,100.00
2022-12-08T19:48:28.019Z,100.00
2022-12-08T19:50:54.388Z,100.00
2022-12-08T19:53:21.006Z,100.00
2022-12-08T19:55:49.380Z,100.00
2022-12-08T19:58:16.132Z,100.00
2022-12-08T20:00:43.091Z,100.00
2022-12-08T20:03:10.940Z,100.00
2022-12-08T20:05:39.620Z,100.00
2022-12-08T20:08:07.109Z,100.00
2022-12-08T20:10:35.928Z,100.00
2022-12-08T20:13:22.555Z,100.00
2022-12-08T20:15:55.121Z,100.00
2022-12-08T20:18:21.801Z,100.00
2022-12-08T20:20:48.611Z,100.00
2022-12-08T20:23:15.568Z,100.00
2022-12-08T20:25:43.222Z,100.00
2022-12-08T20:28:10.075Z,100.00
2022-12-08T20:30:40.225Z,100.00
2022-12-08T20:33:06.637Z,100.00
2022-12-08T20:35:33.870Z,100.00
2022-12-08T20:38:00.267Z,100.00
2022-12-08T20:40:28.889Z,100.00
2022-12-08T20:42:55.312Z,100.00
2022-12-08T20:45:21.867Z,100.00
2022-12-08T20:47:48.297Z,100.00
2022-12-08T20:50:14.745Z,100.00
2022-12-08T20:52:41.206Z,100.00
2022-12-08T20:55:08.122Z,100.00
2022-12-08T20:57:34.978Z,100.00
2022-12-08T21:00:01.683Z,100.00
2022-12-08T21:02:28.195Z,100.00
2022-12-08T21:04:54.821Z,100.00
2022-12-08T21:07:21.307Z,100.00
2022-12-08T21:09:47.885Z,100.00
2022-12-08T21:12:14.513Z,100.00
2022-12-08T21:14:40.983Z,100.00
2022-12-08T21:17:08.244Z,100.00
2022-12-08T21:19:34.749Z,100.00
2022-12-08T21:22:01.242Z,100.00
2022-12-08T21:24:33.453Z,100.00
2022-12-08T21:27:02.660Z,100.00
2022-12-08T21:29:29.001Z,100.00
2022-12-08T21:31:57.260Z,100.00
2022-12-08T21:34:24.589Z,100.00
2022-12-08T21:36:51.069Z,100.00
2022-12-08T21:39:17.900Z,100.00
2022-12-08T21:42:02.918Z,100.00
2022-12-08T21:44:30.374Z,100.00
2022-12-08T21:46:56.820Z,100.00
2022-12-08T21:49:23.584Z,100.00
2022-12-08T21:51:50.102Z,100.00
2022-12-08T21:54:18.961Z,100.00
2022-12-08T21:56:45.965Z,100.00
2022-12-08T21:59:12.280Z,100.00
2022-12-08T22:01:39.012Z,100.00
2022-12-08T22:04:06.020Z,100.00
2022-12-08T22:06:32.625Z,100.00
2022-12-08T22:08:59.254Z,100.00
2022-12-08T22:11:25.781Z,100.00
2022-12-08T22:13:52.142Z,100.00
2022-12-08T22:16:18.476Z,100.00
2022-12-08T22:18:45.217Z,100.00
2022-12-08T22:21:15.486Z,100.00
2022-12-08T22:23:47.147Z,100.00
2022-12-08T22:26:13.959Z,100.00
2022-12-08T22:28:41.582Z,100.00
2022-12-08T22:31:13.600Z,100.00
2022-12-08T22:33:40.912Z,100.00
2022-12-08T22:36:10.883Z,100.00
2022-12-08T22:38:37.868Z,100.00
2022-12-08T22:41:05.595Z,100.00
2022-12-08T22:43:36.178Z,100.00
2022-12-08T22:46:11.519Z,100.00
2022-12-08T22:48:38.707Z,100.00
2022-12-08T22:51:05.325Z,100.00
2022-12-08T22:53:32.061Z,100.00
2022-12-08T22:55:58.545Z,100.00
2022-12-08T22:58:24.861Z,100.00
2022-12-08T23:00:51.622Z,100.00
2022-12-08T23:03:18.323Z,100.00
2022-12-08T23:05:44.787Z,100.00
2022-12-08T23:08:14.671Z,100.00
2022-12-08T23:10:41.461Z,100.00
2022-12-08T23:13:08.357Z,100.00
2022-12-08T23:15:34.671Z,100.00
2022-12-08T23:18:01.209Z,100.00
2022-12-08T23:20:27.646Z,100.00
2022-12-08T23:22:53.986Z,100.00
2022-12-08T23:25:20.475Z,100.00
2022-12-08T23:27:47.130Z,100.00
2022-12-08T23:30:13.990Z,100.00
2022-12-08T23:32:40.463Z,100.00
2022-12-08T23:35:07.533Z,100.00
2022-12-08T23:37:33.960Z,100.00
2022-12-08T23:40:00.480Z,100.00
2022-12-08T23:42:28.356Z,100.00
2022-12-08T23:44:54.754Z,100.00
2022-12-08T23:47:25.479Z,100.00
2022-12-08T23:49:52.032Z,100.00
2022-12-08T23:52:18.360Z,100.00
2022-12-08T23:54:45.556Z,100.00
2022-12-08T23:57:11.925Z,100.00
2022-12-08T23:59:38.716Z,100.00
